Time;durP1;ratioP1;P1;durP2;ratioP2;P2;SDS_P1;SDS_P2;PMS_P1;PMS_P2;Temp;Humidity;BMP_temperature;BMP_pressure;BME280_temperature;BME280_humidity;BME280_pressure;Samples;Min_cycle;Max_cycle;Signal;HPM_P1;HPM_P2
2024/01/26 00:02:24;;;;;;;30.55;10.65;;;6.60;99.90;;;;;;5042299;28;20067;-52
2024/01/26 00:04:51;;;;;;;29.00;11.00;;;6.60;99.90;;;;;;5039769;28;20083;-53
2024/01/26 00:07:18;;;;;;;23.73;10.57;;;6.60;99.90;;;;;;5031448;28;20044;-49
2024/01/26 00:09:45;;;;;;;31.05;10.32;;;6.60;99.90;;;;;;5030758;28;20052;-48
2024/01/26 00:12:12;;;;;;;28.20;9.88;;;6.60;99.90;;;;;;5037617;28;20044;-50
2024/01/26 00:14:39;;;;;;;19.70;10.02;;;6.60;99.90;;;;;;5029353;28;20387;-54
2024/01/26 00:17:06;;;;;;;21.95;10.35;;;6.60;99.90;;;;;;5041810;28;20056;-51
2024/01/26 00:19:33;;;;;;;24.90;9.50;;;6.60;99.90;;;;;;5034553;28;20079;-46
2024/01/26 00:22:00;;;;;;;20.45;9.25;;;6.60;99.90;;;;;;5041023;28;20156;-45
2024/01/26 00:24:27;;;;;;;21.77;9.23;;;6.60;99.90;;;;;;5040564;28;20416;-47
2024/01/26 00:26:54;;;;;;;23.63;9.80;;;6.60;99.90;;;;;;5033666;28;20041;-51
2024/01/26 00:29:21;;;;;;;26.17;8.77;;;6.60;99.90;;;;;;5033682;28;20056;-49
2024/01/26 00:31:48;;;;;;;26.35;9.18;;;6.70;99.90;;;;;;5038818;28;20124;-48
2024/01/26 00:34:15;;;;;;;21.40;7.88;;;6.60;99.90;;;;;;5041790;28;20105;-44
2024/01/26 00:36:44;;;;;;;17.77;8.13;;;6.70;99.90;;;;;;5028309;28;20536;-49
2024/01/26 00:39:11;;;;;;;31.25;9.13;;;6.60;99.90;;;;;;5035808;28;20265;-44
2024/01/26 00:41:38;;;;;;;22.48;9.35;;;6.70;99.90;;;;;;5042251;28;20037;-48
2024/01/26 00:44:05;;;;;;;26.98;8.38;;;6.70;99.90;;;;;;5039799;28;20470;-50
2024/01/26 00:46:32;;;;;;;21.23;8.38;;;6.70;99.90;;;;;;5043242;28;20071;-45
2024/01/26 00:48:59;;;;;;;23.75;8.20;;;6.70;99.90;;;;;;5046821;28;20135;-47
2024/01/26 00:51:26;;;;;;;22.70;9.38;;;6.70;99.90;;;;;;5048696;28;20216;-50
2024/01/26 00:53:53;;;;;;;24.52;9.40;;;6.60;99.90;;;;;;5043373;28;20142;-50
2024/01/26 00:56:20;;;;;;;30.90;8.57;;;6.60;99.90;;;;;;5052761;28;20531;-47
2024/01/26 00:58:47;;;;;;;29.27;8.60;;;6.60;99.90;;;;;;5043836;28;20049;-48
2024/01/26 01:01:14;;;;;;;22.77;8.57;;;6.70;99.90;;;;;;5040398;28;20053;-50
2024/01/26 01:03:42;;;;;;;21.10;8.35;;;6.60;99.90;;;;;;5036150;28;20064;-47
2024/01/26 01:06:09;;;;;;;19.90;8.25;;;6.70;99.90;;;;;;5036613;28;20049;-51
2024/01/26 01:08:36;;;;;;;19.50;8.63;;;6.60;99.90;;;;;;5037928;28;20129;-49
2024/01/26 01:11:04;;;;;;;19.90;8.45;;;6.60;99.90;;;;;;5040059;28;20052;-52
2024/01/26 01:13:31;;;;;;;25.33;9.13;;;6.70;99.90;;;;;;5034321;28;20482;-50
2024/01/26 01:16:00;;;;;;;21.38;9.00;;;6.60;99.90;;;;;;5040358;28;20045;-45
2024/01/26 01:18:27;;;;;;;21.58;9.18;;;6.60;99.90;;;;;;5034123;28;20087;-50
2024/01/26 01:20:54;;;;;;;17.95;8.80;;;6.60;99.90;;;;;;5040580;28;20056;-48
2024/01/26 01:23:21;;;;;;;20.02;8.65;;;6.60;99.90;;;;;;5048278;28;20064;-49
2024/01/26 01:25:48;;;;;;;22.90;9.57;;;6.60;99.90;;;;;;5044778;28;20049;-48
2024/01/26 01:28:15;;;;;;;16.42;8.85;;;6.60;99.90;;;;;;5033520;28;20046;-51
2024/01/26 01:30:43;;;;;;;18.42;8.57;;;6.60;99.90;;;;;;5032640;28;20041;-48
2024/01/26 01:33:09;;;;;;;24.45;8.20;;;6.60;99.90;;;;;;5049355;28;20136;-50
2024/01/26 01:35:36;;;;;;;22.55;8.95;;;6.60;99.90;;;;;;5039027;28;20131;-47
2024/01/26 01:38:03;;;;;;;23.80;8.20;;;6.60;99.90;;;;;;5042166;28;20041;-47
2024/01/26 01:40:30;;;;;;;20.73;8.85;;;6.60;99.90;;;;;;5045591;28;20540;-48
2024/01/26 01:42:58;;;;;;;23.45;8.80;;;6.60;99.90;;;;;;5047529;28;20048;-48
2024/01/26 01:45:24;;;;;;;20.45;8.45;;;6.60;99.90;;;;;;5037373;28;20072;-45
2024/01/26 01:47:51;;;;;;;24.15;7.85;;;6.60;99.90;;;;;;5046732;28;20048;-48
2024/01/26 01:50:18;;;;;;;28.33;9.98;;;6.60;99.90;;;;;;5040862;28;20524;-49
2024/01/26 01:52:48;;;;;;;24.63;8.75;;;6.60;99.90;;;;;;5027339;28;20088;-49
2024/01/26 01:55:15;;;;;;;22.40;8.68;;;6.60;99.90;;;;;;5046771;28;20041;-50
2024/01/26 01:57:44;;;;;;;21.77;8.98;;;6.60;99.90;;;;;;5036879;28;20486;-48
2024/01/26 02:00:18;;;;;;;20.25;8.20;;;6.60;99.90;;;;;;5042035;28;20053;-49
2024/01/26 02:02:47;;;;;;;27.98;7.95;;;6.60;99.90;;;;;;5043299;28;20136;-50
2024/01/26 02:05:15;;;;;;;17.58;8.25;;;6.70;99.90;;;;;;5041396;28;20083;-49
2024/01/26 02:07:50;;;;;;;19.00;8.25;;;6.60;99.90;;;;;;5041772;28;20132;-45
2024/01/26 02:10:18;;;;;;;21.23;8.57;;;6.60;99.90;;;;;;5037882;28;20064;-49
2024/01/26 02:12:45;;;;;;;20.50;9.43;;;6.70;99.90;;;;;;5027241;28;20080;-50
2024/01/26 02:15:12;;;;;;;22.52;9.27;;;6.70;99.90;;;;;;5038969;28;20041;-48
2024/01/26 02:17:41;;;;;;;24.08;9.27;;;6.60;99.90;;;;;;5038761;28;20119;-48
2024/01/26 02:20:09;;;;;;;29.75;9.40;;;6.70;99.90;;;;;;5037125;28;20056;-49
2024/01/26 02:22:37;;;;;;;24.15;9.18;;;6.70;99.90;;;;;;5042439;28;20046;-49
2024/01/26 02:25:05;;;;;;;19.48;8.27;;;6.70;99.90;;;;;;5039882;28;20049;-49
2024/01/26 02:27:33;;;;;;;17.85;8.20;;;6.60;99.90;;;;;;5034784;28;20044;-44
2024/01/26 02:30:00;;;;;;;23.20;9.70;;;6.60;99.90;;;;;;5030383;28;20084;-46
2024/01/26 02:32:28;;;;;;;20.95;9.07;;;6.70;99.90;;;;;;5032754;28;20049;-52
2024/01/26 02:34:55;;;;;;;24.27;9.80;;;6.70;99.90;;;;;;5043734;28;20516;-46
2024/01/26 02:37:22;;;;;;;21.02;8.85;;;6.70;99.90;;;;;;5033380;28;20060;-47
2024/01/26 02:39:48;;;;;;;23.73;8.65;;;6.70;99.90;;;;;;5043251;28;20075;-45
2024/01/26 02:42:15;;;;;;;21.15;8.82;;;6.70;99.90;;;;;;5040768;28;20087;-49
2024/01/26 02:44:42;;;;;;;17.60;8.35;;;6.70;99.90;;;;;;5038450;28;20132;-48
2024/01/26 02:47:09;;;;;;;18.73;9.38;;;6.70;99.90;;;;;;5034220;28;20068;-43
2024/01/26 02:49:36;;;;;;;18.60;8.48;;;6.70;99.90;;;;;;5031471;28;20046;-46
2024/01/26 02:52:03;;;;;;;18.83;7.93;;;6.70;99.90;;;;;;5035368;28;20140;-47
2024/01/26 02:54:30;;;;;;;20.70;8.55;;;6.70;99.90;;;;;;5034842;28;20518;-48
2024/01/26 02:56:58;;;;;;;20.02;9.02;;;6.70;99.90;;;;;;5037257;28;20076;-51
2024/01/26 02:59:25;;;;;;;17.58;8.18;;;6.70;99.90;;;;;;5032798;28;20456;-45
2024/01/26 03:01:52;;;;;;;18.73;8.10;;;6.80;99.90;;;;;;5032307;28;20121;-49
2024/01/26 03:04:19;;;;;;;19.60;7.78;;;6.80;99.90;;;;;;5032157;28;20446;-46
2024/01/26 03:06:47;;;;;;;16.38;8.38;;;6.70;99.90;;;;;;5029534;28;20045;-50
2024/01/26 03:09:14;;;;;;;21.05;8.50;;;6.70;99.90;;;;;;5031530;28;20038;-49
2024/01/26 03:11:42;;;;;;;20.48;8.00;;;6.80;99.90;;;;;;5031866;28;20041;-45
2024/01/26 03:14:10;;;;;;;17.30;8.15;;;6.80;99.90;;;;;;5032563;28;20096;-50
2024/01/26 03:16:40;;;;;;;19.17;8.23;;;6.80;99.90;;;;;;5032814;28;20041;-48
2024/01/26 03:19:08;;;;;;;22.65;9.10;;;6.80;99.90;;;;;;5041123;28;20108;-46
2024/01/26 03:21:44;;;;;;;17.27;8.07;;;6.80;99.90;;;;;;5038621;28;20076;-50
2024/01/26 03:24:12;;;;;;;16.80;7.20;;;6.80;99.90;;;;;;5039399;28;20056;-51
2024/01/26 03:26:39;;;;;;;19.83;9.70;;;6.80;99.90;;;;;;5038837;28;20051;-47
2024/01/26 03:29:06;;;;;;;18.95;8.30;;;6.80;99.90;;;;;;5032844;28;20037;-48
2024/01/26 03:31:34;;;;;;;17.00;7.82;;;6.80;99.90;;;;;;5039148;28;20046;-44
2024/01/26 03:34:01;;;;;;;17.23;8.20;;;6.80;99.90;;;;;;5033433;28;20107;-42
2024/01/26 03:36:29;;;;;;;19.02;9.15;;;6.80;99.90;;;;;;5031233;28;20053;-45
2024/01/26 03:38:56;;;;;;;19.00;8.35;;;6.80;99.90;;;;;;5029562;28;20104;-47
2024/01/26 03:41:23;;;;;;;19.98;8.68;;;6.80;99.90;;;;;;5032103;28;20041;-49
2024/01/26 03:43:51;;;;;;;18.73;8.93;;;6.80;99.90;;;;;;5030022;28;20522;-45
2024/01/26 03:46:20;;;;;;;21.00;8.73;;;6.80;99.90;;;;;;5029357;28;20053;-49
2024/01/26 03:48:48;;;;;;;17.15;9.10;;;6.80;99.90;;;;;;5031697;28;20426;-44
2024/01/26 03:51:15;;;;;;;18.20;9.05;;;6.80;99.90;;;;;;5030766;28;20091;-46
2024/01/26 03:53:42;;;;;;;18.38;9.07;;;6.80;99.90;;;;;;5029889;28;20037;-44
2024/01/26 03:56:09;;;;;;;21.38;9.55;;;6.80;99.90;;;;;;5014344;28;20080;-49
2024/01/26 03:58:36;;;;;;;19.05;9.27;;;6.80;99.90;;;;;;5030065;28;20060;-46
2024/01/26 04:01:03;;;;;;;22.02;10.27;;;6.90;99.90;;;;;;5033885;28;20068;-48
2024/01/26 04:03:30;;;;;;;20.02;9.57;;;6.90;99.90;;;;;;5039566;28;20053;-45
2024/01/26 04:05:58;;;;;;;22.92;8.63;;;6.90;99.90;;;;;;5030462;28;20048;-47
2024/01/26 04:08:25;;;;;;;18.15;9.07;;;6.90;99.90;;;;;;5031978;28;20029;-47
2024/01/26 04:10:52;;;;;;;17.90;9.13;;;6.90;99.90;;;;;;5033679;28;20087;-43
2024/01/26 04:13:19;;;;;;;20.10;8.73;;;6.80;99.90;;;;;;5028777;28;20046;-44
2024/01/26 04:15:46;;;;;;;17.10;8.70;;;6.80;99.90;;;;;;5027316;28;20045;-49
2024/01/26 04:18:14;;;;;;;22.85;9.57;;;6.90;99.90;;;;;;5033449;28;20053;-45
2024/01/26 04:20:41;;;;;;;22.85;9.43;;;6.90;99.90;;;;;;5033123;28;20037;-48
2024/01/26 04:23:08;;;;;;;18.42;9.75;;;6.90;99.90;;;;;;5032634;28;20050;-46
2024/01/26 04:25:35;;;;;;;19.77;10.10;;;6.90;99.90;;;;;;5033146;28;20049;-44
2024/01/26 04:28:03;;;;;;;21.63;10.63;;;6.90;99.90;;;;;;5033804;28;20319;-50
2024/01/26 04:30:30;;;;;;;20.52;10.27;;;6.90;99.90;;;;;;5035828;28;20150;-47
2024/01/26 04:32:57;;;;;;;19.27;9.93;;;6.90;99.90;;;;;;5034987;28;20365;-46
2024/01/26 04:35:24;;;;;;;22.25;10.32;;;7.00;99.90;;;;;;5034828;28;20045;-43
2024/01/26 04:37:52;;;;;;;22.42;10.18;;;7.00;99.90;;;;;;5034360;28;20076;-47
2024/01/26 04:40:19;;;;;;;23.15;10.30;;;7.00;99.90;;;;;;5030819;28;20059;-43
2024/01/26 04:42:47;;;;;;;26.52;9.77;;;7.00;99.90;;;;;;5029170;28;20060;-46
2024/01/26 04:45:14;;;;;;;22.67;11.43;;;7.10;99.90;;;;;;5028618;28;20046;-50
2024/01/26 04:47:42;;;;;;;19.98;10.35;;;7.10;99.90;;;;;;5026903;28;20068;-43
2024/01/26 04:50:10;;;;;;;20.60;10.25;;;7.10;99.90;;;;;;5036557;28;20103;-47
2024/01/26 04:52:37;;;;;;;22.75;10.68;;;7.10;99.90;;;;;;5029520;28;20075;-46
2024/01/26 04:55:08;;;;;;;21.52;10.77;;;7.20;99.90;;;;;;5030606;28;20340;-42
2024/01/26 04:57:35;;;;;;;20.08;10.02;;;7.20;99.90;;;;;;5027567;28;20128;-50
2024/01/26 05:00:03;;;;;;;21.58;9.55;;;7.20;99.90;;;;;;5037230;28;20528;-47
2024/01/26 05:02:30;;;;;;;15.80;9.75;;;7.20;99.90;;;;;;5033973;28;20048;-45
2024/01/26 05:04:58;;;;;;;19.08;10.13;;;7.20;99.90;;;;;;5031305;28;20514;-47
2024/01/26 05:07:25;;;;;;;19.92;10.75;;;7.20;99.90;;;;;;5036929;28;20094;-49
2024/01/26 05:09:52;;;;;;;17.77;11.10;;;7.20;99.90;;;;;;5035495;28;20050;-48
2024/01/26 05:12:19;;;;;;;24.73;11.20;;;7.20;99.90;;;;;;5036125;28;20565;-46
2024/01/26 05:14:46;;;;;;;20.10;9.88;;;7.20;99.90;;;;;;5031791;28;20072;-47
2024/01/26 05:17:13;;;;;;;19.77;10.82;;;7.20;99.90;;;;;;5032666;28;20057;-47
2024/01/26 05:19:40;;;;;;;23.48;11.40;;;7.30;99.90;;;;;;5040185;28;20057;-53
2024/01/26 05:22:07;;;;;;;18.75;10.60;;;7.30;99.90;;;;;;5036519;28;20046;-46
2024/01/26 05:24:34;;;;;;;18.63;10.38;;;7.30;99.90;;;;;;5034405;28;21227;-48
2024/01/26 05:27:08;;;;;;;23.05;11.23;;;7.30;99.90;;;;;;5041004;28;20498;-47
2024/01/26 05:29:35;;;;;;;18.95;11.20;;;7.30;99.90;;;;;;5031013;28;20139;-45
2024/01/26 05:32:04;;;;;;;19.67;10.93;;;7.30;99.90;;;;;;5030928;28;20052;-47
2024/01/26 05:34:31;;;;;;;23.75;12.13;;;7.30;99.90;;;;;;5035898;28;20084;-52
2024/01/26 05:36:59;;;;;;;17.92;10.05;;;7.40;99.90;;;;;;5031709;28;20139;-49
2024/01/26 05:39:28;;;;;;;24.77;11.50;;;7.40;99.90;;;;;;5036528;28;20076;-42
2024/01/26 05:41:55;;;;;;;20.73;11.63;;;7.30;99.90;;;;;;5012950;28;20124;-46
2024/01/26 05:44:22;;;;;;;21.90;11.23;;;7.40;99.90;;;;;;5028275;28;20055;-47
2024/01/26 05:46:49;;;;;;;21.80;11.13;;;7.40;99.90;;;;;;5030725;28;20140;-50
2024/01/26 05:49:16;;;;;;;21.80;10.95;;;7.30;99.90;;;;;;5034728;28;20469;-46
2024/01/26 05:51:44;;;;;;;22.08;11.18;;;7.40;99.90;;;;;;5034325;28;20073;-46
2024/01/26 05:54:14;;;;;;;21.83;10.57;;;7.30;99.90;;;;;;5036149;28;20072;-50
2024/01/26 05:56:42;;;;;;;18.88;10.85;;;7.40;99.90;;;;;;5026763;28;20409;-52
2024/01/26 05:59:09;;;;;;;21.35;10.93;;;7.40;99.90;;;;;;5030650;28;20050;-44
2024/01/26 06:01:36;;;;;;;17.80;11.13;;;7.40;99.90;;;;;;5024181;28;20128;-49
2024/01/26 06:04:05;;;;;;;24.15;11.35;;;7.40;99.90;;;;;;5029267;28;20124;-43
2024/01/26 06:06:32;;;;;;;20.25;10.98;;;7.40;99.90;;;;;;5045221;28;20099;-46
2024/01/26 06:08:59;;;;;;;22.27;11.13;;;7.50;99.90;;;;;;5041182;28;20048;-45
2024/01/26 06:11:27;;;;;;;22.20;12.45;;;7.50;99.90;;;;;;5022052;28;20037;-42
2024/01/26 06:13:54;;;;;;;23.02;12.55;;;7.50;99.90;;;;;;5044245;28;20073;-46
2024/01/26 06:16:21;;;;;;;20.33;11.40;;;7.50;99.90;;;;;;5032990;28;20107;-43
2024/01/26 06:18:48;;;;;;;22.55;11.02;;;7.50;99.90;;;;;;5036675;28;20053;-48
2024/01/26 06:21:15;;;;;;;22.70;12.10;;;7.50;99.90;;;;;;5038862;28;20077;-49
2024/01/26 06:23:42;;;;;;;19.23;11.13;;;7.60;99.90;;;;;;5030979;28;20046;-50
2024/01/26 06:26:09;;;;;;;25.33;12.20;;;7.60;99.90;;;;;;5037442;28;20425;-49
2024/01/26 06:28:36;;;;;;;24.77;12.07;;;7.60;99.90;;;;;;5037679;28;20045;-47
2024/01/26 06:31:03;;;;;;;19.70;11.50;;;7.60;99.90;;;;;;5046498;28;20137;-46
2024/01/26 06:33:30;;;;;;;21.85;11.38;;;7.70;99.90;;;;;;5050169;28;20522;-46
2024/01/26 06:35:57;;;;;;;19.25;12.05;;;7.70;99.90;;;;;;5044902;28;20053;-48
2024/01/26 06:38:24;;;;;;;20.60;11.30;;;7.70;99.90;;;;;;5040732;28;20529;-47
2024/01/26 06:40:51;;;;;;;20.23;12.18;;;7.70;99.90;;;;;;5037624;28;20034;-45
2024/01/26 06:43:20;;;;;;;21.40;12.20;;;7.70;99.90;;;;;;5039713;28;20135;-47
2024/01/26 06:45:46;;;;;;;19.33;11.30;;;7.70;99.90;;;;;;5029947;28;20049;-47
2024/01/26 06:48:13;;;;;;;20.38;11.90;;;7.80;99.90;;;;;;5039498;28;20069;-47
2024/01/26 06:50:41;;;;;;;21.27;12.07;;;7.80;99.90;;;;;;5044558;28;20418;-51
2024/01/26 06:53:09;;;;;;;20.13;10.80;;;7.90;99.90;;;;;;5039484;28;20065;-44
2024/01/26 06:55:36;;;;;;;17.15;10.35;;;7.90;99.90;;;;;;5033153;28;20033;-45
2024/01/26 06:58:03;;;;;;;17.55;10.50;;;7.90;99.90;;;;;;5040861;28;20059;-47
2024/01/26 07:00:30;;;;;;;18.83;10.80;;;7.90;99.90;;;;;;5032319;28;20056;-49
2024/01/26 07:02:57;;;;;;;16.75;10.35;;;7.90;99.90;;;;;;5035781;28;20053;-48
2024/01/26 07:05:24;;;;;;;20.88;11.23;;;7.90;99.90;;;;;;5034843;28;20584;-47
2024/01/26 07:07:51;;;;;;;18.25;10.20;;;7.90;99.90;;;;;;5034172;28;20133;-50
2024/01/26 07:10:18;;;;;;;17.80;10.80;;;8.00;99.90;;;;;;5047167;28;20105;-45
2024/01/26 07:12:45;;;;;;;17.45;10.95;;;8.00;99.90;;;;;;5033928;28;20836;-40
2024/01/26 07:15:12;;;;;;;15.73;10.27;;;8.10;99.90;;;;;;5040717;28;20055;-47
2024/01/26 07:17:39;;;;;;;18.73;9.88;;;8.10;99.90;;;;;;5037375;28;20518;-42
2024/01/26 07:20:07;;;;;;;15.57;9.15;;;8.10;99.90;;;;;;5042501;28;20053;-45
2024/01/26 07:22:34;;;;;;;17.30;8.88;;;8.10;99.90;;;;;;5015175;28;20566;-50
2024/01/26 07:25:01;;;;;;;13.73;8.15;;;8.20;99.90;;;;;;5038159;28;20305;-44
2024/01/26 07:27:28;;;;;;;17.27;9.20;;;8.20;99.90;;;;;;5030736;28;20099;-48
2024/01/26 07:29:55;;;;;;;18.50;8.73;;;8.20;99.90;;;;;;5042000;28;20079;-53
2024/01/26 07:32:22;;;;;;;13.05;8.10;;;8.30;99.90;;;;;;5033649;28;20450;-50
2024/01/26 07:34:49;;;;;;;14.55;8.00;;;8.20;99.90;;;;;;5035921;28;20052;-45
2024/01/26 07:37:16;;;;;;;13.07;7.40;;;8.30;99.90;;;;;;5038175;28;20037;-46
2024/01/26 07:39:43;;;;;;;14.82;6.95;;;8.30;99.90;;;;;;5037489;28;20044;-46
2024/01/26 07:42:10;;;;;;;12.40;7.40;;;8.30;99.90;;;;;;5040223;28;20076;-44
2024/01/26 07:44:37;;;;;;;13.02;7.18;;;8.30;99.90;;;;;;5031520;28;20084;-48
2024/01/26 07:47:04;;;;;;;10.35;6.03;;;8.40;99.90;;;;;;5034420;28;20333;-46
2024/01/26 07:49:31;;;;;;;10.18;6.43;;;8.40;99.90;;;;;;5037009;28;20068;-48
2024/01/26 07:52:00;;;;;;;11.82;5.80;;;8.40;99.90;;;;;;5042713;28;20107;-48
2024/01/26 07:54:27;;;;;;;10.98;6.80;;;8.40;99.90;;;;;;5036939;28;20088;-51
2024/01/26 07:56:54;;;;;;;12.98;6.65;;;8.40;99.90;;;;;;5040119;28;20072;-45
2024/01/26 07:59:21;;;;;;;9.52;6.45;;;8.40;99.90;;;;;;5037576;28;20060;-52
2024/01/26 08:01:48;;;;;;;14.88;6.30;;;8.50;99.90;;;;;;5040996;28;20059;-48
2024/01/26 08:04:15;;;;;;;9.63;6.00;;;8.50;99.90;;;;;;5042932;28;20059;-44
2024/01/26 08:06:43;;;;;;;10.27;5.82;;;8.50;99.90;;;;;;5037110;28;20048;-45
2024/01/26 08:09:10;;;;;;;11.13;6.35;;;8.50;99.90;;;;;;5030526;28;20059;-44
2024/01/26 08:11:38;;;;;;;9.27;4.68;;;8.60;99.90;;;;;;5028426;28;20073;-45
2024/01/26 08:14:05;;;;;;;9.52;5.28;;;8.60;99.90;;;;;;5028301;28;20099;-47
2024/01/26 08:16:33;;;;;;;8.80;4.43;;;8.70;99.90;;;;;;5026346;28;20072;-49
2024/01/26 08:19:00;;;;;;;11.40;4.78;;;8.70;99.90;;;;;;5031333;28;20495;-48
2024/01/26 08:21:27;;;;;;;7.60;3.78;;;8.70;99.90;;;;;;5031881;28;20053;-43
2024/01/26 08:23:55;;;;;;;8.77;4.15;;;8.80;99.90;;;;;;5031205;28;20049;-43
2024/01/26 08:26:22;;;;;;;6.68;3.17;;;8.90;99.90;;;;;;5033448;28;20060;-49
2024/01/26 08:28:49;;;;;;;5.82;2.70;;;9.00;99.90;;;;;;5030682;28;20045;-47
2024/01/26 08:31:16;;;;;;;4.05;2.53;;;9.10;99.90;;;;;;5032498;28;20088;-53
2024/01/26 08:33:43;;;;;;;3.70;2.30;;;9.30;99.90;;;;;;5034467;28;20514;-48
2024/01/26 08:36:10;;;;;;;4.38;2.30;;;9.40;99.90;;;;;;5039069;28;20049;-51
2024/01/26 08:38:37;;;;;;;5.53;2.60;;;9.40;99.90;;;;;;5031273;28;20434;-45
2024/01/26 08:41:07;;;;;;;5.18;2.22;;;9.50;99.90;;;;;;5027462;28;20046;-46
2024/01/26 08:43:35;;;;;;;6.53;2.42;;;9.60;99.90;;;;;;5032843;28;20084;-45
2024/01/26 08:46:02;;;;;;;4.95;2.33;;;9.70;99.90;;;;;;5030365;28;20506;-45
2024/01/26 08:48:29;;;;;;;5.22;2.90;;;9.80;99.90;;;;;;5032084;28;20198;-50
2024/01/26 08:50:56;;;;;;;2.83;1.90;;;9.90;99.90;;;;;;5033137;28;20046;-50
2024/01/26 08:53:23;;;;;;;5.35;2.10;;;9.90;99.90;;;;;;5036608;28;20060;-50
2024/01/26 08:55:50;;;;;;;4.35;1.90;;;9.80;99.90;;;;;;5037080;28;20069;-44
2024/01/26 08:58:17;;;;;;;5.22;1.88;;;9.80;99.90;;;;;;5036613;28;20041;-45
2024/01/26 09:00:45;;;;;;;3.83;2.17;;;10.00;99.90;;;;;;5037550;28;20045;-44
2024/01/26 09:03:12;;;;;;;3.63;1.90;;;9.90;99.90;;;;;;5037026;28;20422;-46
2024/01/26 09:05:40;;;;;;;3.60;1.90;;;9.90;99.90;;;;;;5037592;28;20383;-47
2024/01/26 09:08:07;;;;;;;4.07;2.22;;;9.80;99.90;;;;;;5033752;28;20166;-45
2024/01/26 09:10:34;;;;;;;4.93;2.00;;;9.80;99.90;;;;;;5040737;28;20587;-46
2024/01/26 09:13:01;;;;;;;4.15;2.15;;;9.60;99.90;;;;;;5039175;28;20057;-47
2024/01/26 09:15:27;;;;;;;4.30;2.17;;;9.60;99.90;;;;;;5036440;28;20041;-44
2024/01/26 09:17:55;;;;;;;3.03;1.67;;;9.60;99.90;;;;;;5049520;28;20525;-46
2024/01/26 09:20:22;;;;;;;4.57;2.10;;;9.60;99.90;;;;;;5034906;28;20054;-47
2024/01/26 09:22:49;;;;;;;4.22;2.40;;;9.60;99.90;;;;;;5032589;28;20049;-45
2024/01/26 09:25:16;;;;;;;4.63;1.98;;;9.60;99.90;;;;;;5030436;28;20421;-47
2024/01/26 09:27:45;;;;;;;3.67;1.88;;;9.60;99.90;;;;;;5036441;28;20071;-47
2024/01/26 09:30:12;;;;;;;7.03;2.10;;;9.70;99.90;;;;;;5039609;28;20056;-47
2024/01/26 09:32:39;;;;;;;6.78;1.92;;;9.70;99.90;;;;;;5036329;28;20065;-45
2024/01/26 09:35:09;;;;;;;4.53;1.98;;;9.80;99.90;;;;;;5037427;28;20136;-47
2024/01/26 09:37:36;;;;;;;4.35;1.92;;;9.70;99.90;;;;;;5032832;28;20479;-45
2024/01/26 09:40:04;;;;;;;4.95;1.60;;;9.70;99.90;;;;;;5026017;28;20573;-46
2024/01/26 09:42:31;;;;;;;7.95;2.03;;;9.80;99.90;;;;;;5032268;28;20073;-42
2024/01/26 09:45:01;;;;;;;4.85;1.90;;;9.90;99.90;;;;;;5037101;28;20512;-46
2024/01/26 09:47:29;;;;;;;3.88;1.73;;;10.00;99.90;;;;;;5028581;28;20080;-51
2024/01/26 09:50:02;;;;;;;4.10;1.65;;;10.20;99.90;;;;;;5031422;28;20084;-47
2024/01/26 09:52:29;;;;;;;2.78;1.70;;;10.30;99.90;;;;;;5032449;28;20556;-46
2024/01/26 09:54:58;;;;;;;3.15;1.67;;;10.40;99.90;;;;;;5032369;28;20467;-52
2024/01/26 09:57:26;;;;;;;3.80;1.50;;;10.40;99.90;;;;;;5034320;28;20493;-48
2024/01/26 09:59:53;;;;;;;2.50;1.45;;;10.40;99.90;;;;;;5013491;28;20081;-46
2024/01/26 10:02:25;;;;;;;4.85;1.65;;;10.50;99.90;;;;;;5036023;28;20049;-50
2024/01/26 10:04:52;;;;;;;6.65;1.42;;;10.50;99.90;;;;;;5035552;28;20183;-41
2024/01/26 10:07:21;;;;;;;3.28;1.60;;;10.40;99.90;;;;;;5032923;28;20473;-41
2024/01/26 10:09:48;;;;;;;3.13;1.52;;;10.40;99.90;;;;;;5010589;28;20061;-48
2024/01/26 10:12:18;;;;;;;3.08;1.50;;;10.40;99.90;;;;;;5032154;28;20207;-47
2024/01/26 10:14:45;;;;;;;3.28;1.58;;;10.40;99.90;;;;;;5015104;28;20045;-45
2024/01/26 10:17:19;;;;;;;3.45;1.70;;;10.40;99.90;;;;;;5036948;28;20073;-49
2024/01/26 10:19:46;;;;;;;4.88;1.70;;;10.50;99.90;;;;;;5042762;28;20253;-43
2024/01/26 10:22:14;;;;;;;4.97;1.85;;;10.50;99.90;;;;;;5037367;28;20045;-44
2024/01/26 10:24:42;;;;;;;5.22;1.80;;;10.60;99.90;;;;;;5031518;28;20049;-47
2024/01/26 10:27:09;;;;;;;3.92;1.77;;;10.50;99.90;;;;;;5032217;28;20510;-48
2024/01/26 10:29:37;;;;;;;3.03;1.63;;;10.60;99.90;;;;;;5034659;28;20045;-49
2024/01/26 10:32:10;;;;;;;5.03;1.73;;;10.60;99.90;;;;;;5032763;28;20049;-45
2024/01/26 10:34:39;;;;;;;5.72;2.17;;;10.90;99.90;;;;;;5038013;28;20111;-47
2024/01/26 10:37:10;;;;;;;3.90;2.00;;;11.20;99.90;;;;;;5033930;28;20041;-53
2024/01/26 10:39:38;;;;;;;2.63;1.60;;;11.30;99.90;;;;;;5039190;28;20140;-46
2024/01/26 10:42:06;;;;;;;3.88;1.70;;;11.30;99.90;;;;;;5037335;28;20075;-46
2024/01/26 10:44:37;;;;;;;4.47;1.80;;;11.30;99.90;;;;;;5034370;28;20049;-47
2024/01/26 10:47:07;;;;;;;4.95;2.08;;;11.20;99.90;;;;;;5039162;28;20064;-46
2024/01/26 10:49:36;;;;;;;5.47;2.45;;;11.20;99.90;;;;;;5038105;28;20091;-46
2024/01/26 10:52:05;;;;;;;4.82;1.90;;;11.00;99.90;;;;;;5038015;28;20379;-50
2024/01/26 10:54:33;;;;;;;3.40;1.80;;;10.90;99.90;;;;;;5046005;28;20104;-48
2024/01/26 10:57:00;;;;;;;5.18;1.83;;;10.70;99.90;;;;;;5040393;28;20041;-48
2024/01/26 10:59:28;;;;;;;3.22;1.88;;;10.60;99.90;;;;;;5047166;28;20047;-43
2024/01/26 11:01:55;;;;;;;3.47;1.73;;;10.60;99.90;;;;;;5038009;28;20041;-43
2024/01/26 11:04:23;;;;;;;3.85;1.70;;;10.50;99.90;;;;;;5032969;28;20123;-46
2024/01/26 11:06:50;;;;;;;3.58;1.58;;;10.40;99.90;;;;;;5031568;28;20046;-45
2024/01/26 11:09:19;;;;;;;3.13;1.90;;;10.50;99.90;;;;;;5034875;28;20506;-45
2024/01/26 11:11:50;;;;;;;4.45;1.67;;;10.50;99.90;;;;;;5029278;28;20072;-48
2024/01/26 11:14:26;;;;;;;3.17;1.90;;;10.50;99.90;;;;;;5039500;28;20105;-45
2024/01/26 11:16:53;;;;;;;3.90;1.80;;;10.50;99.90;;;;;;5031159;28;20045;-49
2024/01/26 11:19:23;;;;;;;3.35;1.75;;;10.50;99.90;;;;;;5031287;28;20044;-45
2024/01/26 11:21:50;;;;;;;4.28;2.10;;;10.50;99.90;;;;;;5032741;28;20048;-46
2024/01/26 11:24:18;;;;;;;4.38;1.67;;;10.50;99.90;;;;;;5031170;28;20069;-44
2024/01/26 11:26:56;;;;;;;3.63;1.75;;;10.50;99.90;;;;;;5032372;28;20137;-47
2024/01/26 11:29:33;;;;;;;3.30;1.88;;;10.40;99.90;;;;;;5031767;28;20587;-47
2024/01/26 11:32:14;;;;;;;3.28;1.90;;;10.40;99.90;;;;;;5027400;28;20050;-41
2024/01/26 11:34:42;;;;;;;3.80;2.05;;;10.40;99.90;;;;;;5030572;28;20464;-44
2024/01/26 11:37:11;;;;;;;4.55;2.13;;;10.30;99.90;;;;;;5033283;28;20579;-43
2024/01/26 11:39:38;;;;;;;3.22;1.80;;;10.20;99.90;;;;;;5034240;28;20124;-48
2024/01/26 11:42:11;;;;;;;4.20;1.77;;;10.20;99.90;;;;;;5039825;28;20034;-47
2024/01/26 11:44:42;;;;;;;4.00;1.95;;;10.20;99.90;;;;;;5040204;28;20045;-43
2024/01/26 11:47:09;;;;;;;4.10;2.05;;;10.10;99.90;;;;;;5037676;28;20056;-44
2024/01/26 11:49:39;;;;;;;6.03;2.40;;;10.00;99.90;;;;;;5041818;28;20060;-46
2024/01/26 11:52:07;;;;;;;3.17;1.80;;;9.90;99.90;;;;;;5036262;28;20128;-49
2024/01/26 11:54:35;;;;;;;4.80;1.90;;;9.90;99.90;;;;;;5036249;28;20092;-44
2024/01/26 11:57:02;;;;;;;3.30;1.70;;;9.80;99.90;;;;;;5036026;28;20077;-47
2024/01/26 11:59:30;;;;;;;3.40;1.80;;;9.80;99.90;;;;;;5031022;28;20442;-47
2024/01/26 12:01:57;;;;;;;3.58;2.10;;;9.90;99.90;;;;;;5029915;28;20518;-43
2024/01/26 12:04:24;;;;;;;4.55;2.20;;;9.80;99.90;;;;;;5029652;28;20570;-46
2024/01/26 12:06:54;;;;;;;4.80;2.15;;;9.80;99.90;;;;;;5011939;28;20508;-46
2024/01/26 12:09:21;;;;;;;4.40;1.92;;;9.70;99.90;;;;;;5030313;28;20069;-48
2024/01/26 12:11:49;;;;;;;3.85;1.80;;;9.80;99.90;;;;;;5030105;28;20056;-46
2024/01/26 12:14:16;;;;;;;5.32;2.50;;;9.80;99.90;;;;;;5013114;28;20033;-47
2024/01/26 12:16:43;;;;;;;3.45;1.88;;;9.80;99.90;;;;;;5011787;28;20549;-46
2024/01/26 12:19:10;;;;;;;4.18;2.25;;;9.70;99.90;;;;;;5029221;28;20088;-47
2024/01/26 12:21:37;;;;;;;3.38;1.83;;;9.80;99.90;;;;;;5031802;28;20050;-49
2024/01/26 12:24:11;;;;;;;3.70;1.90;;;9.80;99.90;;;;;;5033032;28;20144;-50
2024/01/26 12:26:41;;;;;;;3.95;1.83;;;9.80;99.90;;;;;;5035716;28;20061;-54
2024/01/26 12:29:08;;;;;;;3.80;2.13;;;9.90;99.90;;;;;;5023336;28;20071;-46
2024/01/26 12:31:36;;;;;;;4.68;2.35;;;9.90;99.90;;;;;;5037080;28;20053;-48
2024/01/26 12:34:11;;;;;;;4.50;2.15;;;9.90;99.90;;;;;;5037363;28;20053;-42
2024/01/26 12:36:39;;;;;;;6.30;2.53;;;9.80;99.90;;;;;;5040192;28;20037;-44
2024/01/26 12:39:06;;;;;;;5.97;2.80;;;9.80;99.90;;;;;;5043294;28;20387;-43
2024/01/26 12:41:33;;;;;;;11.50;3.20;;;9.80;99.90;;;;;;5038253;28;20060;-44
2024/01/26 12:44:01;;;;;;;5.25;2.35;;;9.80;99.90;;;;;;5043696;28;20061;-45
2024/01/26 12:46:27;;;;;;;5.93;2.22;;;9.90;99.90;;;;;;5042211;28;20140;-46
2024/01/26 12:48:54;;;;;;;7.05;2.15;;;9.80;99.90;;;;;;5041396;28;20129;-43